sensor_id;sensor_type;location;lat;lon;timestamp;P1;durP1;ratioP1;P2;durP2;ratioP2
64403;SDS011;50726;54.912;-8.392;2022-10-14T00:01:04;614.17;;;580.10;;
64403;SDS011;50726;54.912;-8.392;2022-10-14T00:03:35;614.40;;;579.38;;
64403;SDS011;50726;54.912;-8.392;2022-10-14T00:06:06;569.95;;;538.30;;
64403;SDS011;50726;54.912;-8.392;2022-10-14T00:08:36;583.78;;;550.65;;
64403;SDS011;50726;54.912;-8.392;2022-10-14T00:11:06;589.92;;;556.85;;
64403;SDS011;50726;54.912;-8.392;2022-10-14T00:13:36;589.92;;;556.72;;
64403;SDS011;50726;54.912;-8.392;2022-10-14T00:16:03;552.10;;;521.53;;
64403;SDS011;50726;54.912;-8.392;2022-10-14T00:18:29;549.25;;;519.10;;
64403;SDS011;50726;54.912;-8.392;2022-10-14T00:21:00;540.45;;;510.63;;
64403;SDS011;50726;54.912;-8.392;2022-10-14T00:23:27;559.28;;;528.58;;
64403;SDS011;50726;54.912;-8.392;2022-10-14T00:25:53;591.58;;;559.33;;
64403;SDS011;50726;54.912;-8.392;2022-10-14T00:28:19;595.03;;;561.83;;
64403;SDS011;50726;54.912;-8.392;2022-10-14T00:30:58;629.65;;;595.20;;
64403;SDS011;50726;54.912;-8.392;2022-10-14T00:33:26;600.00;;;567.65;;
64403;SDS011;50726;54.912;-8.392;2022-10-14T00:35:53;602.95;;;571.50;;
64403;SDS011;50726;54.912;-8.392;2022-10-14T00:38:23;588.92;;;558.00;;
64403;SDS011;50726;54.912;-8.392;2022-10-14T00:40:49;611.45;;;579.60;;
64403;SDS011;50726;54.912;-8.392;2022-10-14T00:43:15;649.65;;;615.42;;
64403;SDS011;50726;54.912;-8.392;2022-10-14T00:45:41;658.70;;;624.35;;
64403;SDS011;50726;54.912;-8.392;2022-10-14T00:48:07;685.17;;;649.25;;
64403;SDS011;50726;54.912;-8.392;2022-10-14T00:50:34;684.35;;;647.20;;
64403;SDS011;50726;54.912;-8.392;2022-10-14T00:53:01;679.70;;;643.05;;
64403;SDS011;50726;54.912;-8.392;2022-10-14T00:55:27;697.67;;;660.15;;
64403;SDS011;50726;54.912;-8.392;2022-10-14T00:57:54;701.60;;;664.10;;
64403;SDS011;50726;54.912;-8.392;2022-10-14T01:00:20;710.63;;;671.95;;
64403;SDS011;50726;54.912;-8.392;2022-10-14T01:02:46;664.70;;;629.13;;
64403;SDS011;50726;54.912;-8.392;2022-10-14T01:05:14;683.72;;;646.33;;
64403;SDS011;50726;54.912;-8.392;2022-10-14T01:13:16;669.13;;;631.67;;
64403;SDS011;50726;54.912;-8.392;2022-10-14T01:29:54;664.95;;;625.75;;
64403;SDS011;50726;54.912;-8.392;2022-10-14T01:32:32;645.15;;;608.90;;
64403;SDS011;50726;54.912;-8.392;2022-10-14T01:35:19;618.17;;;583.20;;
64403;SDS011;50726;54.912;-8.392;2022-10-14T01:38:07;639.65;;;603.92;;
64403;SDS011;50726;54.912;-8.392;2022-10-14T01:40:42;626.47;;;591.17;;
64403;SDS011;50726;54.912;-8.392;2022-10-14T01:43:15;615.55;;;581.25;;
64403;SDS011;50726;54.912;-8.392;2022-10-14T01:45:43;578.67;;;544.97;;
64403;SDS011;50726;54.912;-8.392;2022-10-14T01:48:12;594.80;;;560.63;;
64403;SDS011;50726;54.912;-8.392;2022-10-14T01:50:45;605.25;;;570.75;;
64403;SDS011;50726;54.912;-8.392;2022-10-14T01:53:16;607.83;;;572.85;;
64403;SDS011;50726;54.912;-8.392;2022-10-14T01:55:46;573.55;;;541.80;;
64403;SDS011;50726;54.912;-8.392;2022-10-14T01:58:13;576.05;;;544.25;;
64403;SDS011;50726;54.912;-8.392;2022-10-14T02:00:41;603.33;;;569.70;;
64403;SDS011;50726;54.912;-8.392;2022-10-14T02:03:08;594.20;;;561.40;;
64403;SDS011;50726;54.912;-8.392;2022-10-14T02:05:47;615.35;;;581.75;;
64403;SDS011;50726;54.912;-8.392;2022-10-14T02:11:10;606.67;;;573.67;;
64403;SDS011;50726;54.912;-8.392;2022-10-14T02:21:52;651.28;;;615.35;;
64403;SDS011;50726;54.912;-8.392;2022-10-14T02:24:36;618.97;;;584.97;;
64403;SDS011;50726;54.912;-8.392;2022-10-14T02:27:16;635.28;;;599.72;;
64403;SDS011;50726;54.912;-8.392;2022-10-14T02:29:44;643.10;;;607.93;;
64403;SDS011;50726;54.912;-8.392;2022-10-14T02:32:13;641.40;;;607.55;;
64403;SDS011;50726;54.912;-8.392;2022-10-14T02:34:41;630.90;;;596.55;;
64403;SDS011;50726;54.912;-8.392;2022-10-14T02:37:10;670.72;;;635.15;;
64403;SDS011;50726;54.912;-8.392;2022-10-14T02:39:38;670.80;;;634.70;;
64403;SDS011;50726;54.912;-8.392;2022-10-14T02:42:08;675.80;;;638.40;;
64403;SDS011;50726;54.912;-8.392;2022-10-14T02:44:33;662.30;;;625.83;;
64403;SDS011;50726;54.912;-8.392;2022-10-14T02:46:59;655.97;;;618.88;;
64403;SDS011;50726;54.912;-8.392;2022-10-14T02:49:25;656.35;;;619.22;;
64403;SDS011;50726;54.912;-8.392;2022-10-14T02:51:50;671.25;;;633.85;;
64403;SDS011;50726;54.912;-8.392;2022-10-14T02:54:16;661.22;;;624.85;;
64403;SDS011;50726;54.912;-8.392;2022-10-14T02:56:41;663.72;;;627.13;;
64403;SDS011;50726;54.912;-8.392;2022-10-14T02:59:07;642.67;;;606.60;;
64403;SDS011;50726;54.912;-8.392;2022-10-14T03:01:33;653.13;;;617.30;;
64403;SDS011;50726;54.912;-8.392;2022-10-14T03:03:58;663.97;;;627.05;;
64403;SDS011;50726;54.912;-8.392;2022-10-14T03:06:24;660.03;;;623.85;;
64403;SDS011;50726;54.912;-8.392;2022-10-14T03:08:50;661.75;;;625.20;;
64403;SDS011;50726;54.912;-8.392;2022-10-14T03:11:15;633.25;;;596.40;;
64403;SDS011;50726;54.912;-8.392;2022-10-14T03:13:41;623.90;;;588.50;;
64403;SDS011;50726;54.912;-8.392;2022-10-14T03:16:06;652.28;;;614.65;;
64403;SDS011;50726;54.912;-8.392;2022-10-14T03:18:32;670.55;;;631.53;;
64403;SDS011;50726;54.912;-8.392;2022-10-14T03:20:58;645.63;;;610.17;;
64403;SDS011;50726;54.912;-8.392;2022-10-14T03:23:25;570.80;;;540.88;;
64403;SDS011;50726;54.912;-8.392;2022-10-14T03:25:50;500.40;;;473.45;;
64403;SDS011;50726;54.912;-8.392;2022-10-14T03:28:16;302.40;;;285.20;;
64403;SDS011;50726;54.912;-8.392;2022-10-14T03:30:41;414.45;;;392.15;;
64403;SDS011;50726;54.912;-8.392;2022-10-14T03:33:07;389.05;;;367.10;;
64403;SDS011;50726;54.912;-8.392;2022-10-14T03:35:33;440.77;;;415.95;;
64403;SDS011;50726;54.912;-8.392;2022-10-14T03:37:58;435.20;;;411.58;;
64403;SDS011;50726;54.912;-8.392;2022-10-14T03:40:27;528.83;;;500.88;;
64403;SDS011;50726;54.912;-8.392;2022-10-14T03:42:55;607.95;;;575.83;;
64403;SDS011;50726;54.912;-8.392;2022-10-14T03:45:22;666.78;;;630.92;;
64403;SDS011;50726;54.912;-8.392;2022-10-14T03:47:48;628.88;;;595.53;;
64403;SDS011;50726;54.912;-8.392;2022-10-14T03:50:13;655.60;;;620.10;;
64403;SDS011;50726;54.912;-8.392;2022-10-14T03:52:39;654.80;;;618.75;;
64403;SDS011;50726;54.912;-8.392;2022-10-14T03:55:05;663.95;;;627.65;;
64403;SDS011;50726;54.912;-8.392;2022-10-14T03:57:31;670.22;;;634.45;;
64403;SDS011;50726;54.912;-8.392;2022-10-14T03:59:57;655.15;;;618.88;;
64403;SDS011;50726;54.912;-8.392;2022-10-14T04:02:22;664.60;;;627.65;;
64403;SDS011;50726;54.912;-8.392;2022-10-14T04:04:48;658.38;;;621.40;;
64403;SDS011;50726;54.912;-8.392;2022-10-14T04:07:14;667.33;;;630.72;;
64403;SDS011;50726;54.912;-8.392;2022-10-14T04:09:40;682.20;;;644.30;;
64403;SDS011;50726;54.912;-8.392;2022-10-14T04:12:06;689.63;;;649.25;;
64403;SDS011;50726;54.912;-8.392;2022-10-14T04:14:31;690.55;;;650.90;;
64403;SDS011;50726;54.912;-8.392;2022-10-14T04:16:58;675.28;;;636.58;;
64403;SDS011;50726;54.912;-8.392;2022-10-14T04:19:23;650.13;;;614.05;;
64403;SDS011;50726;54.912;-8.392;2022-10-14T04:21:49;660.40;;;623.35;;
64403;SDS011;50726;54.912;-8.392;2022-10-14T04:24:14;653.97;;;618.13;;
64403;SDS011;50726;54.912;-8.392;2022-10-14T04:26:40;660.10;;;624.30;;
64403;SDS011;50726;54.912;-8.392;2022-10-14T04:29:05;675.53;;;638.28;;
64403;SDS011;50726;54.912;-8.392;2022-10-14T04:31:31;676.63;;;638.53;;
64403;SDS011;50726;54.912;-8.392;2022-10-14T04:33:57;662.05;;;626.03;;
64403;SDS011;50726;54.912;-8.392;2022-10-14T04:36:22;662.47;;;625.03;;
64403;SDS011;50726;54.912;-8.392;2022-10-14T04:38:48;672.10;;;633.97;;
64403;SDS011;50726;54.912;-8.392;2022-10-14T04:41:13;658.22;;;621.97;;
64403;SDS011;50726;54.912;-8.392;2022-10-14T04:43:39;662.08;;;625.03;;
64403;SDS011;50726;54.912;-8.392;2022-10-14T04:46:04;673.17;;;635.35;;
64403;SDS011;50726;54.912;-8.392;2022-10-14T04:48:30;665.70;;;628.72;;
64403;SDS011;50726;54.912;-8.392;2022-10-14T04:50:56;668.80;;;631.83;;
64403;SDS011;50726;54.912;-8.392;2022-10-14T04:53:21;664.53;;;626.95;;
64403;SDS011;50726;54.912;-8.392;2022-10-14T04:55:48;662.40;;;625.47;;
64403;SDS011;50726;54.912;-8.392;2022-10-14T04:58:15;648.20;;;612.25;;
64403;SDS011;50726;54.912;-8.392;2022-10-14T05:00:41;631.92;;;595.78;;
64403;SDS011;50726;54.912;-8.392;2022-10-14T05:03:07;624.63;;;589.97;;
64403;SDS011;50726;54.912;-8.392;2022-10-14T05:05:32;657.20;;;621.28;;
64403;SDS011;50726;54.912;-8.392;2022-10-14T05:07:58;662.60;;;626.70;;
64403;SDS011;50726;54.912;-8.392;2022-10-14T05:10:24;672.63;;;634.80;;
64403;SDS011;50726;54.912;-8.392;2022-10-14T05:12:49;672.47;;;634.28;;
64403;SDS011;50726;54.912;-8.392;2022-10-14T05:15:15;663.85;;;626.42;;
64403;SDS011;50726;54.912;-8.392;2022-10-14T05:17:41;679.90;;;642.63;;
64403;SDS011;50726;54.912;-8.392;2022-10-14T05:20:09;666.03;;;629.83;;
64403;SDS011;50726;54.912;-8.392;2022-10-14T05:22:35;678.22;;;640.78;;
64403;SDS011;50726;54.912;-8.392;2022-10-14T05:25:01;650.42;;;615.13;;
64403;SDS011;50726;54.912;-8.392;2022-10-14T05:27:27;612.92;;;580.60;;
64403;SDS011;50726;54.912;-8.392;2022-10-14T05:29:54;620.45;;;587.47;;
64403;SDS011;50726;54.912;-8.392;2022-10-14T05:32:20;627.30;;;591.75;;
64403;SDS011;50726;54.912;-8.392;2022-10-14T05:34:45;657.28;;;622.60;;
64403;SDS011;50726;54.912;-8.392;2022-10-14T05:37:11;692.60;;;656.35;;
64403;SDS011;50726;54.912;-8.392;2022-10-14T05:39:37;715.88;;;677.65;;
64403;SDS011;50726;54.912;-8.392;2022-10-14T05:42:02;659.30;;;624.88;;
64403;SDS011;50726;54.912;-8.392;2022-10-14T05:44:28;711.15;;;673.40;;
64403;SDS011;50726;54.912;-8.392;2022-10-14T05:46:54;704.22;;;666.55;;
64403;SDS011;50726;54.912;-8.392;2022-10-14T05:49:19;818.47;;;773.45;;
64403;SDS011;50726;54.912;-8.392;2022-10-14T05:51:45;814.10;;;768.63;;
64403;SDS011;50726;54.912;-8.392;2022-10-14T05:54:11;796.78;;;753.92;;
64403;SDS011;50726;54.912;-8.392;2022-10-14T05:56:37;748.00;;;708.00;;
64403;SDS011;50726;54.912;-8.392;2022-10-14T05:59:03;775.53;;;734.05;;
64403;SDS011;50726;54.912;-8.392;2022-10-14T06:01:29;839.70;;;792.90;;
64403;SDS011;50726;54.912;-8.392;2022-10-14T06:03:58;841.83;;;793.50;;
64403;SDS011;50726;54.912;-8.392;2022-10-14T06:06:24;837.10;;;787.28;;
64403;SDS011;50726;54.912;-8.392;2022-10-14T06:08:50;825.65;;;775.80;;
64403;SDS011;50726;54.912;-8.392;2022-10-14T06:11:15;807.50;;;759.10;;
64403;SDS011;50726;54.912;-8.392;2022-10-14T06:13:41;796.72;;;746.75;;
64403;SDS011;50726;54.912;-8.392;2022-10-14T06:16:07;758.88;;;712.90;;
64403;SDS011;50726;54.912;-8.392;2022-10-14T06:18:34;764.88;;;716.95;;
64403;SDS011;50726;54.912;-8.392;2022-10-14T06:21:01;765.90;;;718.97;;
64403;SDS011;50726;54.912;-8.392;2022-10-14T06:23:27;760.53;;;714.47;;
64403;SDS011;50726;54.912;-8.392;2022-10-14T06:25:53;685.17;;;646.08;;
64403;SDS011;50726;54.912;-8.392;2022-10-14T06:28:19;751.10;;;708.38;;
64403;SDS011;50726;54.912;-8.392;2022-10-14T06:30:49;750.85;;;707.95;;
64403;SDS011;50726;54.912;-8.392;2022-10-14T06:33:16;754.75;;;712.40;;
64403;SDS011;50726;54.912;-8.392;2022-10-14T06:35:42;758.08;;;715.97;;
64403;SDS011;50726;54.912;-8.392;2022-10-14T06:38:08;766.20;;;723.78;;
64403;SDS011;50726;54.912;-8.392;2022-10-14T06:40:34;735.95;;;695.42;;
64403;SDS011;50726;54.912;-8.392;2022-10-14T06:43:00;513.60;;;486.75;;
64403;SDS011;50726;54.912;-8.392;2022-10-14T06:45:26;660.53;;;625.78;;
64403;SDS011;50726;54.912;-8.392;2022-10-14T06:47:51;750.63;;;710.15;;
64403;SDS011;50726;54.912;-8.392;2022-10-14T06:50:17;769.28;;;728.00;;
64403;SDS011;50726;54.912;-8.392;2022-10-14T06:52:46;802.60;;;756.92;;
64403;SDS011;50726;54.912;-8.392;2022-10-14T06:55:12;798.88;;;754.35;;
64403;SDS011;50726;54.912;-8.392;2022-10-14T06:57:39;799.45;;;755.67;;
64403;SDS011;50726;54.912;-8.392;2022-10-14T07:00:05;794.40;;;750.20;;
64403;SDS011;50726;54.912;-8.392;2022-10-14T07:02:31;821.33;;;775.65;;
64403;SDS011;50726;54.912;-8.392;2022-10-14T07:04:57;824.63;;;778.63;;
64403;SDS011;50726;54.912;-8.392;2022-10-14T07:07:22;825.05;;;778.22;;
64403;SDS011;50726;54.912;-8.392;2022-10-14T07:09:48;814.70;;;767.70;;
64403;SDS011;50726;54.912;-8.392;2022-10-14T07:12:14;813.92;;;766.80;;
64403;SDS011;50726;54.912;-8.392;2022-10-14T07:14:40;807.28;;;760.15;;
64403;SDS011;50726;54.912;-8.392;2022-10-14T07:17:06;799.08;;;752.50;;
64403;SDS011;50726;54.912;-8.392;2022-10-14T07:19:32;801.45;;;753.97;;
64403;SDS011;50726;54.912;-8.392;2022-10-14T07:21:58;787.20;;;741.30;;
64403;SDS011;50726;54.912;-8.392;2022-10-14T07:24:24;754.10;;;711.13;;
64403;SDS011;50726;54.912;-8.392;2022-10-14T07:26:49;755.85;;;713.20;;
64403;SDS011;50726;54.912;-8.392;2022-10-14T07:29:15;790.45;;;746.72;;
64403;SDS011;50726;54.912;-8.392;2022-10-14T07:31:41;782.15;;;737.30;;
64403;SDS011;50726;54.912;-8.392;2022-10-14T07:34:07;780.10;;;735.85;;
64403;SDS011;50726;54.912;-8.392;2022-10-14T07:36:33;786.00;;;741.10;;
64403;SDS011;50726;54.912;-8.392;2022-10-14T07:38:58;770.03;;;727.85;;
64403;SDS011;50726;54.912;-8.392;2022-10-14T07:41:25;779.15;;;736.03;;
64403;SDS011;50726;54.912;-8.392;2022-10-14T07:43:52;746.95;;;707.05;;
64403;SDS011;50726;54.912;-8.392;2022-10-14T07:46:20;749.35;;;709.65;;
64403;SDS011;50726;54.912;-8.392;2022-10-14T07:48:58;758.03;;;717.53;;
64403;SDS011;50726;54.912;-8.392;2022-10-14T07:51:26;790.85;;;747.08;;
64403;SDS011;50726;54.912;-8.392;2022-10-14T07:53:53;755.17;;;714.83;;
64403;SDS011;50726;54.912;-8.392;2022-10-14T07:56:20;759.78;;;719.67;;
64403;SDS011;50726;54.912;-8.392;2022-10-14T07:58:47;677.65;;;641.75;;
64403;SDS011;50726;54.912;-8.392;2022-10-14T08:01:13;663.63;;;628.90;;
64403;SDS011;50726;54.912;-8.392;2022-10-14T08:03:40;624.95;;;591.30;;
64403;SDS011;50726;54.912;-8.392;2022-10-14T08:08:35;595.60;;;564.70;;
64403;SDS011;50726;54.912;-8.392;2022-10-14T08:13:29;591.95;;;560.67;;
64403;SDS011;50726;54.912;-8.392;2022-10-14T08:15:55;505.48;;;478.42;;
64403;SDS011;50726;54.912;-8.392;2022-10-14T08:18:21;421.50;;;398.55;;
64403;SDS011;50726;54.912;-8.392;2022-10-14T08:20:47;433.58;;;410.17;;
64403;SDS011;50726;54.912;-8.392;2022-10-14T08:23:13;454.95;;;429.83;;
64403;SDS011;50726;54.912;-8.392;2022-10-14T08:25:38;456.02;;;430.98;;
64403;SDS011;50726;54.912;-8.392;2022-10-14T08:28:05;498.63;;;471.92;;
64403;SDS011;50726;54.912;-8.392;2022-10-14T08:30:31;513.80;;;486.58;;
64403;SDS011;50726;54.912;-8.392;2022-10-14T08:32:56;518.22;;;490.40;;
64403;SDS011;50726;54.912;-8.392;2022-10-14T08:35:24;561.58;;;531.90;;
64403;SDS011;50726;54.912;-8.392;2022-10-14T08:37:59;579.47;;;548.13;;
64403;SDS011;50726;54.912;-8.392;2022-10-14T08:40:27;460.02;;;434.88;;
64403;SDS011;50726;54.912;-8.392;2022-10-14T08:45:34;473.42;;;447.95;;
64403;SDS011;50726;54.912;-8.392;2022-10-14T08:48:10;474.40;;;448.52;;
64403;SDS011;50726;54.912;-8.392;2022-10-14T08:53:13;507.55;;;480.40;;
64403;SDS011;50726;54.912;-8.392;2022-10-14T08:55:43;522.50;;;493.88;;
64403;SDS011;50726;54.912;-8.392;2022-10-14T09:00:58;443.90;;;419.33;;
64403;SDS011;50726;54.912;-8.392;2022-10-14T09:03:28;472.95;;;447.13;;
64403;SDS011;50726;54.912;-8.392;2022-10-14T09:06:02;491.15;;;464.52;;
64403;SDS011;50726;54.912;-8.392;2022-10-14T09:08:36;421.25;;;397.67;;
64403;SDS011;50726;54.912;-8.392;2022-10-14T09:11:17;496.30;;;469.77;;
64403;SDS011;50726;54.912;-8.392;2022-10-14T09:13:48;411.88;;;388.90;;
64403;SDS011;50726;54.912;-8.392;2022-10-14T09:16:24;396.10;;;373.80;;
64403;SDS011;50726;54.912;-8.392;2022-10-14T09:21:34;339.42;;;321.05;;
64403;SDS011;50726;54.912;-8.392;2022-10-14T09:29:44;403.90;;;380.67;;
64403;SDS011;50726;54.912;-8.392;2022-10-14T09:32:26;449.55;;;424.50;;
64403;SDS011;50726;54.912;-8.392;2022-10-14T09:34:56;417.77;;;394.23;;
64403;SDS011;50726;54.912;-8.392;2022-10-14T09:37:31;407.77;;;384.63;;
64403;SDS011;50726;54.912;-8.392;2022-10-14T09:40:00;473.15;;;446.90;;
64403;SDS011;50726;54.912;-8.392;2022-10-14T09:46:02;518.70;;;489.98;;
64403;SDS011;50726;54.912;-8.392;2022-10-14T09:48:42;489.63;;;462.85;;
64403;SDS011;50726;54.912;-8.392;2022-10-14T09:51:18;421.85;;;398.52;;
64403;SDS011;50726;54.912;-8.392;2022-10-14T09:53:54;376.90;;;356.03;;
64403;SDS011;50726;54.912;-8.392;2022-10-14T09:56:28;329.02;;;311.45;;
64403;SDS011;50726;54.912;-8.392;2022-10-14T09:59:01;292.75;;;277.65;;
64403;SDS011;50726;54.912;-8.392;2022-10-14T10:01:39;307.27;;;290.63;;
64403;SDS011;50726;54.912;-8.392;2022-10-14T10:06:57;342.70;;;324.33;;
64403;SDS011;50726;54.912;-8.392;2022-10-14T10:09:25;182.93;;;173.27;;
64403;SDS011;50726;54.912;-8.392;2022-10-14T10:11:51;145.43;;;137.82;;
64403;SDS011;50726;54.912;-8.392;2022-10-14T10:14:27;192.15;;;182.55;;
64403;SDS011;50726;54.912;-8.392;2022-10-14T10:19:33;120.53;;;114.35;;
64403;SDS011;50726;54.912;-8.392;2022-10-14T10:24:45;156.32;;;148.70;;
64403;SDS011;50726;54.912;-8.392;2022-10-14T10:27:19;151.40;;;144.00;;
64403;SDS011;50726;54.912;-8.392;2022-10-14T10:29:49;121.53;;;115.47;;
64403;SDS011;50726;54.912;-8.392;2022-10-14T10:35:05;213.07;;;202.13;;
64403;SDS011;50726;54.912;-8.392;2022-10-14T10:40:52;143.52;;;136.23;;
64403;SDS011;50726;54.912;-8.392;2022-10-14T10:51:41;211.07;;;200.88;;
64403;SDS011;50726;54.912;-8.392;2022-10-14T10:54:26;205.65;;;195.70;;
64403;SDS011;50726;54.912;-8.392;2022-10-14T11:00:07;219.85;;;208.88;;
64403;SDS011;50726;54.912;-8.392;2022-10-14T11:11:52;25.65;;;23.90;;
64403;SDS011;50726;54.912;-8.392;2022-10-14T11:19:53;7.68;;;6.32;;
64403;SDS011;50726;54.912;-8.392;2022-10-14T11:36:21;6.30;;;1.50;;
64403;SDS011;50726;54.912;-8.392;2022-10-14T11:41:29;9.57;;;1.90;;
64403;SDS011;50726;54.912;-8.392;2022-10-14T11:44:13;4.90;;;1.40;;
64403;SDS011;50726;54.912;-8.392;2022-10-14T11:46:45;11.50;;;1.58;;
64403;SDS011;50726;54.912;-8.392;2022-10-14T11:50:03;9.25;;;1.55;;
64403;SDS011;50726;54.912;-8.392;2022-10-14T11:52:21;5.35;;;1.15;;
64403;SDS011;50726;54.912;-8.392;2022-10-14T11:57:34;6.70;;;1.20;;
64403;SDS011;50726;54.912;-8.392;2022-10-14T12:05:23;3.90;;;1.42;;
64403;SDS011;50726;54.912;-8.392;2022-10-14T12:13:46;6.45;;;1.70;;
64403;SDS011;50726;54.912;-8.392;2022-10-14T12:16:21;5.78;;;1.83;;
64403;SDS011;50726;54.912;-8.392;2022-10-14T12:21:30;7.90;;;2.65;;
64403;SDS011;50726;54.912;-8.392;2022-10-14T12:24:05;6.75;;;1.60;;
64403;SDS011;50726;54.912;-8.392;2022-10-14T12:29:24;10.55;;;1.38;;
64403;SDS011;50726;54.912;-8.392;2022-10-14T12:34:32;9.18;;;2.05;;
64403;SDS011;50726;54.912;-8.392;2022-10-14T12:37:01;14.77;;;1.42;;
64403;SDS011;50726;54.912;-8.392;2022-10-14T12:42:30;6.00;;;1.80;;
64403;SDS011;50726;54.912;-8.392;2022-10-14T12:45:12;10.63;;;1.55;;
64403;SDS011;50726;54.912;-8.392;2022-10-14T12:47:42;6.75;;;1.45;;
64403;SDS011;50726;54.912;-8.392;2022-10-14T12:52:44;11.10;;;1.90;;
64403;SDS011;50726;54.912;-8.392;2022-10-14T12:55:22;6.88;;;1.13;;
64403;SDS011;50726;54.912;-8.392;2022-10-14T12:57:54;1.77;;;1.15;;
64403;SDS011;50726;54.912;-8.392;2022-10-14T13:02:52;6.32;;;1.00;;
64403;SDS011;50726;54.912;-8.392;2022-10-14T13:05:34;12.52;;;1.88;;
64403;SDS011;50726;54.912;-8.392;2022-10-14T13:11:07;8.00;;;1.55;;
64403;SDS011;50726;54.912;-8.392;2022-10-14T13:18:51;5.07;;;1.15;;
64403;SDS011;50726;54.912;-8.392;2022-10-14T13:22:04;1.30;;;0.73;;
64403;SDS011;50726;54.912;-8.392;2022-10-14T13:32:26;7.47;;;1.20;;
64403;SDS011;50726;54.912;-8.392;2022-10-14T13:34:55;5.32;;;1.27;;
64403;SDS011;50726;54.912;-8.392;2022-10-14T13:42:57;3.17;;;0.88;;
64403;SDS011;50726;54.912;-8.392;2022-10-14T13:45:37;8.02;;;1.40;;
64403;SDS011;50726;54.912;-8.392;2022-10-14T13:50:35;5.95;;;1.30;;
64403;SDS011;50726;54.912;-8.392;2022-10-14T13:53:03;9.02;;;2.20;;
64403;SDS011;50726;54.912;-8.392;2022-10-14T13:55:37;7.72;;;1.13;;
64403;SDS011;50726;54.912;-8.392;2022-10-14T13:58:14;8.40;;;1.40;;
64403;SDS011;50726;54.912;-8.392;2022-10-14T14:03:34;12.70;;;1.65;;
64403;SDS011;50726;54.912;-8.392;2022-10-14T14:06:02;8.40;;;1.60;;
64403;SDS011;50726;54.912;-8.392;2022-10-14T14:08:34;9.73;;;1.70;;
64403;SDS011;50726;54.912;-8.392;2022-10-14T14:11:18;10.20;;;1.58;;
64403;SDS011;50726;54.912;-8.392;2022-10-14T14:13:56;11.10;;;2.30;;
64403;SDS011;50726;54.912;-8.392;2022-10-14T14:17:03;13.85;;;1.55;;
64403;SDS011;50726;54.912;-8.392;2022-10-14T14:19:34;8.23;;;1.40;;
64403;SDS011;50726;54.912;-8.392;2022-10-14T14:22:04;6.05;;;1.13;;
64403;SDS011;50726;54.912;-8.392;2022-10-14T14:24:30;7.40;;;1.63;;
64403;SDS011;50726;54.912;-8.392;2022-10-14T14:26:58;5.82;;;0.98;;
64403;SDS011;50726;54.912;-8.392;2022-10-14T14:29:27;5.35;;;1.35;;
64403;SDS011;50726;54.912;-8.392;2022-10-14T14:31:56;6.47;;;1.08;;
64403;SDS011;50726;54.912;-8.392;2022-10-14T14:34:24;2.88;;;0.63;;
64403;SDS011;50726;54.912;-8.392;2022-10-14T14:36:51;10.10;;;1.25;;
64403;SDS011;50726;54.912;-8.392;2022-10-14T14:39:25;5.82;;;1.10;;
64403;SDS011;50726;54.912;-8.392;2022-10-14T14:41:52;8.80;;;0.80;;
64403;SDS011;50726;54.912;-8.392;2022-10-14T14:44:21;8.02;;;1.70;;
64403;SDS011;50726;54.912;-8.392;2022-10-14T14:46:54;7.45;;;1.33;;
64403;SDS011;50726;54.912;-8.392;2022-10-14T14:49:30;2.88;;;1.25;;
64403;SDS011;50726;54.912;-8.392;2022-10-14T14:54:29;14.55;;;1.52;;
64403;SDS011;50726;54.912;-8.392;2022-10-14T14:57:01;3.67;;;1.65;;
64403;SDS011;50726;54.912;-8.392;2022-10-14T14:59:35;4.80;;;0.95;;
64403;SDS011;50726;54.912;-8.392;2022-10-14T15:02:16;9.00;;;1.15;;
64403;SDS011;50726;54.912;-8.392;2022-10-14T15:04:46;8.02;;;1.25;;
64403;SDS011;50726;54.912;-8.392;2022-10-14T15:07:23;5.50;;;1.10;;
64403;SDS011;50726;54.912;-8.392;2022-10-14T15:09:55;12.57;;;1.90;;
64403;SDS011;50726;54.912;-8.392;2022-10-14T15:14:54;12.23;;;1.75;;
64403;SDS011;50726;54.912;-8.392;2022-10-14T15:22:53;5.38;;;1.20;;
64403;SDS011;50726;54.912;-8.392;2022-10-14T15:25:23;7.85;;;1.60;;
64403;SDS011;50726;54.912;-8.392;2022-10-14T15:27:56;6.07;;;1.33;;
64403;SDS011;50726;54.912;-8.392;2022-10-14T15:33:14;9.60;;;1.55;;
64403;SDS011;50726;54.912;-8.392;2022-10-14T15:35:47;9.00;;;1.58;;
64403;SDS011;50726;54.912;-8.392;2022-10-14T15:38:26;10.43;;;1.27;;
64403;SDS011;50726;54.912;-8.392;2022-10-14T15:40:53;6.07;;;2.05;;
64403;SDS011;50726;54.912;-8.392;2022-10-14T15:43:24;10.50;;;1.10;;
64403;SDS011;50726;54.912;-8.392;2022-10-14T15:45:53;4.75;;;1.27;;
64403;SDS011;50726;54.912;-8.392;2022-10-14T15:48:45;6.47;;;1.45;;
64403;SDS011;50726;54.912;-8.392;2022-10-14T15:51:23;7.88;;;1.00;;
64403;SDS011;50726;54.912;-8.392;2022-10-14T15:53:52;11.40;;;1.48;;
64403;SDS011;50726;54.912;-8.392;2022-10-14T15:56:19;9.85;;;1.67;;
64403;SDS011;50726;54.912;-8.392;2022-10-14T15:58:45;7.90;;;1.58;;
64403;SDS011;50726;54.912;-8.392;2022-10-14T16:01:20;10.23;;;1.60;;
64403;SDS011;50726;54.912;-8.392;2022-10-14T16:03:49;12.38;;;1.65;;
64403;SDS011;50726;54.912;-8.392;2022-10-14T16:06:19;5.47;;;1.17;;
64403;SDS011;50726;54.912;-8.392;2022-10-14T16:08:46;6.90;;;1.23;;
64403;SDS011;50726;54.912;-8.392;2022-10-14T16:11:20;7.35;;;2.10;;
64403;SDS011;50726;54.912;-8.392;2022-10-14T16:13:47;6.57;;;1.27;;
64403;SDS011;50726;54.912;-8.392;2022-10-14T16:16:16;3.88;;;0.98;;
64403;SDS011;50726;54.912;-8.392;2022-10-14T16:18:56;9.38;;;1.27;;
64403;SDS011;50726;54.912;-8.392;2022-10-14T16:21:22;5.22;;;0.90;;
64403;SDS011;50726;54.912;-8.392;2022-10-14T16:23:48;9.38;;;1.20;;
64403;SDS011;50726;54.912;-8.392;2022-10-14T16:26:16;6.93;;;1.10;;
64403;SDS011;50726;54.912;-8.392;2022-10-14T16:28:42;10.85;;;1.63;;
64403;SDS011;50726;54.912;-8.392;2022-10-14T16:31:10;8.68;;;1.23;;
64403;SDS011;50726;54.912;-8.392;2022-10-14T16:33:38;9.18;;;1.05;;
64403;SDS011;50726;54.912;-8.392;2022-10-14T16:36:04;5.68;;;0.80;;
64403;SDS011;50726;54.912;-8.392;2022-10-14T16:38:31;10.10;;;1.33;;
64403;SDS011;50726;54.912;-8.392;2022-10-14T16:40:58;10.55;;;1.45;;
64403;SDS011;50726;54.912;-8.392;2022-10-14T16:43:26;6.63;;;0.95;;
64403;SDS011;50726;54.912;-8.392;2022-10-14T16:45:55;12.23;;;1.25;;
64403;SDS011;50726;54.912;-8.392;2022-10-14T16:48:23;10.25;;;1.67;;
64403;SDS011;50726;54.912;-8.392;2022-10-14T16:50:49;4.35;;;1.08;;
64403;SDS011;50726;54.912;-8.392;2022-10-14T16:53:15;6.40;;;1.15;;
64403;SDS011;50726;54.912;-8.392;2022-10-14T16:55:59;2.97;;;1.70;;
64403;SDS011;50726;54.912;-8.392;2022-10-14T16:58:27;7.57;;;1.77;;
64403;SDS011;50726;54.912;-8.392;2022-10-14T17:00:53;12.82;;;2.10;;
64403;SDS011;50726;54.912;-8.392;2022-10-14T17:03:20;20.33;;;1.95;;
64403;SDS011;50726;54.912;-8.392;2022-10-14T17:05:45;12.00;;;1.60;;
64403;SDS011;50726;54.912;-8.392;2022-10-14T17:08:12;9.05;;;1.83;;
64403;SDS011;50726;54.912;-8.392;2022-10-14T17:10:38;8.25;;;1.70;;
64403;SDS011;50726;54.912;-8.392;2022-10-14T17:13:04;6.30;;;2.00;;